createdAt,value
2018-09-23T00:01:55.532Z,12.02
2018-09-23T00:04:23.562Z,12.07
2018-09-23T00:06:51.560Z,12.03
2018-09-23T00:09:19.588Z,12.21
2018-09-23T00:11:47.682Z,12.10
2018-09-23T00:14:16.545Z,12.18
2018-09-23T00:16:44.772Z,12.29
2018-09-23T00:19:12.810Z,12.34
2018-09-23T00:21:40.833Z,12.28
2018-09-23T00:24:08.861Z,12.30
2018-09-23T00:26:36.872Z,12.26
2018-09-23T00:29:04.938Z,12.38
2018-09-23T00:31:32.989Z,12.50
2018-09-23T00:34:01.132Z,12.42
2018-09-23T00:36:29.232Z,12.36
2018-09-23T00:38:57.393Z,12.40
2018-09-23T00:41:25.425Z,12.36
2018-09-23T00:43:53.456Z,12.36
2018-09-23T00:46:21.484Z,12.22
2018-09-23T00:48:49.516Z,12.11
2018-09-23T00:51:17.592Z,12.20
2018-09-23T00:53:45.609Z,12.28
2018-09-23T00:56:13.660Z,12.38
2018-09-23T00:58:41.653Z,12.36
2018-09-23T01:01:09.713Z,12.54
2018-09-23T01:03:37.744Z,12.42
2018-09-23T01:06:05.820Z,12.46
2018-09-23T01:08:33.852Z,12.43
2018-09-23T01:11:01.850Z,12.50
2018-09-23T01:13:29.892Z,12.48
2018-09-23T01:15:57.959Z,12.53
2018-09-23T01:18:25.976Z,12.39
2018-09-23T01:20:53.986Z,12.34
2018-09-23T01:23:22.009Z,12.39
2018-09-23T01:25:51.096Z,12.35
2018-09-23T01:28:19.100Z,12.41
2018-09-23T01:30:47.140Z,12.22
2018-09-23T01:33:15.129Z,12.28
2018-09-23T01:35:43.334Z,12.34
2018-09-23T01:38:11.424Z,12.23
2018-09-23T01:40:39.461Z,12.16
2018-09-23T01:43:07.477Z,12.21
2018-09-23T01:45:35.501Z,12.15
2018-09-23T01:48:03.504Z,12.25
2018-09-23T01:50:31.521Z,12.19
2018-09-23T01:52:59.569Z,12.30
2018-09-23T01:55:27.599Z,12.41
2018-09-23T01:57:55.585Z,12.35
2018-09-23T02:00:23.606Z,12.38
2018-09-23T02:02:51.620Z,12.42
2018-09-23T02:05:19.629Z,12.54
2018-09-23T02:07:47.688Z,12.60
2018-09-23T02:10:15.744Z,12.47
2018-09-23T02:12:43.812Z,12.52
2018-09-23T02:15:12.020Z,12.34
2018-09-23T02:17:40.009Z,12.37
2018-09-23T02:20:08.017Z,12.40
2018-09-23T02:22:36.046Z,12.28
2018-09-23T02:25:04.089Z,12.20
2018-09-23T02:27:32.129Z,12.24
2018-09-23T02:30:00.169Z,12.05
2018-09-23T02:32:28.212Z,12.24
2018-09-23T02:34:56.193Z,12.22
2018-09-23T02:37:24.282Z,12.30
2018-09-23T02:39:52.285Z,12.34
2018-09-23T02:42:20.309Z,12.30
2018-09-23T02:44:48.432Z,12.47
2018-09-23T02:47:16.448Z,12.52
2018-09-23T02:49:44.503Z,12.54
2018-09-23T02:52:12.604Z,12.58
2018-09-23T02:54:40.617Z,12.58
2018-09-23T02:57:08.606Z,12.52
2018-09-23T02:59:36.593Z,12.56
2018-09-23T03:02:04.636Z,12.48
2018-09-23T03:04:32.636Z,12.23
2018-09-23T03:07:01.096Z,12.25
2018-09-23T03:09:29.019Z,12.36
2018-09-23T03:11:57.053Z,12.48
2018-09-23T03:14:25.025Z,12.49
2018-09-23T03:16:53.065Z,12.39
2018-09-23T03:19:21.072Z,12.39
2018-09-23T03:21:49.086Z,12.59
2018-09-23T03:24:17.116Z,12.48
2018-09-23T03:26:45.117Z,12.47
2018-09-23T03:29:13.120Z,12.48
2018-09-23T03:31:41.120Z,12.36
2018-09-23T03:34:09.105Z,12.23
2018-09-23T03:36:37.149Z,12.24
2018-09-23T03:39:06.605Z,12.16
2018-09-23T03:41:34.768Z,12.25
2018-09-23T03:44:02.812Z,12.39
2018-09-23T03:46:30.812Z,12.37
2018-09-23T03:48:59.126Z,12.45
2018-09-23T03:51:27.229Z,12.51
2018-09-23T03:53:55.285Z,12.65
2018-09-23T03:56:23.351Z,12.46
2018-09-23T03:58:51.329Z,12.48
2018-09-23T04:01:19.335Z,12.46
2018-09-23T04:03:47.385Z,12.64
2018-09-23T04:06:15.489Z,12.68
2018-09-23T04:08:43.544Z,12.80
2018-09-23T04:11:11.558Z,12.70
2018-09-23T04:13:39.593Z,12.73
2018-09-23T04:16:07.596Z,12.72
2018-09-23T04:18:35.636Z,12.83
2018-09-23T04:21:03.942Z,12.80
2018-09-23T04:23:31.989Z,12.90
2018-09-23T04:25:59.988Z,12.78
2018-09-23T04:28:27.999Z,12.95
2018-09-23T04:30:56.016Z,12.92
2018-09-23T04:33:24.028Z,12.84
2018-09-23T04:35:52.045Z,12.83
2018-09-23T04:38:20.073Z,12.73
2018-09-23T04:40:48.175Z,12.80
2018-09-23T04:43:16.218Z,12.93
2018-09-23T04:45:44.237Z,13.03
2018-09-23T04:48:12.273Z,12.90
2018-09-23T04:50:40.477Z,12.87
2018-09-23T04:53:08.482Z,12.90
2018-09-23T04:55:36.481Z,12.98
2018-09-23T04:58:04.528Z,12.86
2018-09-23T05:00:32.508Z,12.80
2018-09-23T05:03:00.516Z,12.82
2018-09-23T05:05:28.506Z,12.86
2018-09-23T05:07:56.543Z,12.71
2018-09-23T05:10:24.574Z,12.63
2018-09-23T05:12:52.613Z,12.78
2018-09-23T05:15:20.616Z,12.68
2018-09-23T05:17:48.636Z,12.88
2018-09-23T05:20:16.664Z,12.89
2018-09-23T05:22:44.676Z,12.76
2018-09-23T05:25:12.697Z,12.63
2018-09-23T05:27:40.724Z,12.80
2018-09-23T05:30:08.730Z,12.52
2018-09-23T05:32:36.837Z,12.68
2018-09-23T05:35:04.837Z,12.66
2018-09-23T05:37:32.849Z,12.64
2018-09-23T05:40:00.870Z,12.52
2018-09-23T05:42:28.902Z,12.58
2018-09-23T05:44:56.901Z,12.67
2018-09-23T05:47:24.897Z,12.72
2018-09-23T05:49:52.965Z,12.90
2018-09-23T05:52:21.020Z,12.93
2018-09-23T05:54:49.032Z,12.88
2018-09-23T05:57:17.060Z,12.91
2018-09-23T05:59:45.082Z,13.02
2018-09-23T06:02:13.325Z,13.20
2018-09-23T06:04:41.415Z,13.29
2018-09-23T06:07:09.457Z,13.36
2018-09-23T06:09:37.461Z,13.30
2018-09-23T06:12:05.537Z,13.30
2018-09-23T06:14:33.569Z,13.36
2018-09-23T06:17:01.571Z,13.22
2018-09-23T06:19:29.593Z,13.20
2018-09-23T06:21:57.596Z,13.19
2018-09-23T06:24:25.683Z,13.35
2018-09-23T06:26:53.680Z,13.51
2018-09-23T06:29:21.676Z,13.58
2018-09-23T06:31:49.668Z,13.64
2018-09-23T06:34:17.704Z,13.71
2018-09-23T06:36:45.805Z,13.87
2018-09-23T06:39:13.825Z,13.93
2018-09-23T06:41:41.821Z,13.84
2018-09-23T06:44:09.937Z,13.93
2018-09-23T06:46:37.925Z,14.04
2018-09-23T06:49:06.035Z,14.16
2018-09-23T06:51:34.060Z,14.19
2018-09-23T06:54:02.136Z,14.28
2018-09-23T06:56:30.153Z,14.24
2018-09-23T06:58:58.243Z,14.26
2018-09-23T07:01:26.329Z,14.33
2018-09-23T07:03:54.340Z,14.37
2018-09-23T07:06:23.413Z,14.63
2018-09-23T07:08:51.440Z,14.66
2018-09-23T07:11:19.469Z,14.81
2018-09-23T07:13:47.454Z,15.10
2018-09-23T07:16:15.504Z,15.41
2018-09-23T07:18:43.561Z,15.93
2018-09-23T07:21:11.572Z,16.18
2018-09-23T07:23:39.653Z,16.24
2018-09-23T07:26:07.662Z,16.22
2018-09-23T07:28:35.738Z,16.22
2018-09-23T07:31:03.763Z,16.28
2018-09-23T07:33:31.932Z,16.15
2018-09-23T07:36:00.025Z,16.28
2018-09-23T07:38:28.137Z,16.28
2018-09-23T07:40:56.180Z,16.20
2018-09-23T07:43:24.188Z,16.19
2018-09-23T07:45:52.248Z,15.91
2018-09-23T07:48:20.249Z,16.01
2018-09-23T07:50:48.356Z,16.20
2018-09-23T07:53:16.364Z,16.41
2018-09-23T07:55:44.700Z,16.49
2018-09-23T07:58:12.721Z,16.77
2018-09-23T08:00:40.706Z,17.02
2018-09-23T08:03:08.705Z,17.34
2018-09-23T08:05:36.726Z,17.61
2018-09-23T08:08:04.807Z,17.70
2018-09-23T08:10:32.822Z,17.93
2018-09-23T08:13:01.095Z,18.03
2018-09-23T08:15:28.912Z,17.93
2018-09-23T08:17:56.913Z,18.11
2018-09-23T08:20:25.057Z,18.59
2018-09-23T08:22:53.135Z,18.97
2018-09-23T08:25:21.182Z,19.16
2018-09-23T08:27:49.230Z,19.25
2018-09-23T08:30:17.348Z,19.37
2018-09-23T08:32:45.465Z,18.89
2018-09-23T08:35:13.525Z,18.93
2018-09-23T08:37:41.570Z,18.75
2018-09-23T08:40:09.635Z,18.70
2018-09-23T08:42:37.876Z,18.64
2018-09-23T08:45:06.075Z,18.58
2018-09-23T08:47:34.184Z,18.52
2018-09-23T08:50:02.209Z,18.46
2018-09-23T08:52:30.262Z,18.31
2018-09-23T08:54:58.291Z,18.26
2018-09-23T08:57:26.368Z,17.96
2018-09-23T08:59:54.429Z,17.37
2018-09-23T09:02:22.478Z,17.52
2018-09-23T09:04:50.542Z,17.48
2018-09-23T09:07:18.610Z,17.70
2018-09-23T09:09:46.660Z,17.81
2018-09-23T09:12:14.686Z,18.03
2018-09-23T09:14:42.688Z,18.13
2018-09-23T09:17:10.694Z,18.28
2018-09-23T09:19:38.697Z,18.51
2018-09-23T09:22:06.772Z,18.49
2018-09-23T09:24:34.973Z,18.28
2018-09-23T09:27:03.027Z,18.37
2018-09-23T09:29:30.997Z,18.02
2018-09-23T09:31:59.029Z,17.33
2018-09-23T09:34:27.020Z,17.21
2018-09-23T09:36:55.149Z,16.83
2018-09-23T09:39:23.227Z,16.56
2018-09-23T09:41:51.237Z,16.63
2018-09-23T09:44:19.236Z,16.47
2018-09-23T09:46:47.301Z,16.36
2018-09-23T09:49:15.426Z,16.30
2018-09-23T09:51:43.473Z,16.34
2018-09-23T09:54:12.548Z,16.50
2018-09-23T09:56:40.673Z,16.66
2018-09-23T09:59:08.709Z,16.33
2018-09-23T10:01:36.743Z,16.03
2018-09-23T10:04:04.812Z,16.26
2018-09-23T10:06:32.914Z,16.17
2018-09-23T10:09:00.944Z,16.02
2018-09-23T10:11:29.027Z,15.91
2018-09-23T10:13:56.985Z,15.88
2018-09-23T10:16:25.024Z,15.77
2018-09-23T10:18:53.072Z,15.84
2018-09-23T10:21:21.117Z,15.70
2018-09-23T10:23:49.112Z,15.82
2018-09-23T10:26:17.125Z,15.52
2018-09-23T10:28:45.165Z,15.53
2018-09-23T10:31:13.260Z,15.66
2018-09-23T10:33:41.412Z,15.68
2018-09-23T10:36:09.497Z,15.64
2018-09-23T10:38:37.433Z,15.62
2018-09-23T10:41:05.445Z,15.64
2018-09-23T10:43:33.477Z,15.59
2018-09-23T10:46:01.497Z,15.28
2018-09-23T10:48:29.693Z,15.28
2018-09-23T10:50:57.757Z,15.02
2018-09-23T10:53:25.825Z,14.95
2018-09-23T10:55:53.881Z,14.96
2018-09-23T10:58:21.919Z,14.90
2018-09-23T11:00:49.989Z,14.96
2018-09-23T11:03:18.050Z,14.70
2018-09-23T11:05:46.098Z,14.61
2018-09-23T11:08:14.139Z,14.44
2018-09-23T11:10:42.153Z,14.64
2018-09-23T11:13:10.316Z,14.68
2018-09-23T11:15:38.393Z,14.73
2018-09-23T11:18:06.679Z,14.60
2018-09-23T11:20:34.701Z,14.30
2018-09-23T11:23:02.772Z,14.06
2018-09-23T11:25:30.788Z,14.00
2018-09-23T11:27:58.817Z,14.01
2018-09-23T11:30:26.845Z,14.26
2018-09-23T11:32:54.880Z,14.31
2018-09-23T11:35:22.895Z,14.36
2018-09-23T11:37:50.967Z,14.52
2018-09-23T11:40:19.193Z,14.67
2018-09-23T11:42:47.240Z,14.77
2018-09-23T11:45:15.630Z,14.82
2018-09-23T11:47:43.673Z,14.81
2018-09-23T11:50:11.705Z,14.83
2018-09-23T11:52:39.815Z,14.84
2018-09-23T11:55:07.973Z,14.81
2018-09-23T11:57:36.009Z,14.96
2018-09-23T12:00:04.714Z,14.99
2018-09-23T12:02:32.753Z,14.83
2018-09-23T12:05:00.771Z,14.81
2018-09-23T12:07:28.773Z,14.92
2018-09-23T12:09:56.769Z,14.89
2018-09-23T12:12:24.797Z,14.98
2018-09-23T12:14:52.860Z,15.03
2018-09-23T12:17:20.903Z,15.20
2018-09-23T12:19:48.892Z,14.82
2018-09-23T12:22:16.917Z,14.54
2018-09-23T12:24:44.981Z,14.45
2018-09-23T12:27:12.975Z,14.42
2018-09-23T12:29:41.079Z,14.23
2018-09-23T12:32:10.020Z,13.99
2018-09-23T12:34:38.204Z,13.93
2018-09-23T12:37:06.533Z,13.94
2018-09-23T12:39:34.565Z,14.08
2018-09-23T12:42:03.159Z,14.40
2018-09-23T12:44:31.208Z,14.64
2018-09-23T12:46:59.292Z,14.85
2018-09-23T12:49:28.190Z,14.69
2018-09-23T12:51:56.408Z,14.43
2018-09-23T12:54:24.758Z,14.11
2018-09-23T12:56:52.748Z,13.97
2018-09-23T12:59:20.990Z,14.00
2018-09-23T13:01:49.002Z,13.70
2018-09-23T13:04:17.044Z,13.64
2018-09-23T13:06:45.096Z,13.88
2018-09-23T13:09:13.209Z,13.89
2018-09-23T13:11:41.318Z,13.77
2018-09-23T13:14:09.621Z,13.90
2018-09-23T13:16:37.667Z,13.78
2018-09-23T13:19:05.920Z,13.54
2018-09-23T13:21:34.939Z,13.29
2018-09-23T13:24:02.942Z,13.28
2018-09-23T13:26:30.973Z,13.15
2018-09-23T13:28:59.161Z,13.09
2018-09-23T13:31:27.156Z,13.23
2018-09-23T13:33:55.201Z,13.36
2018-09-23T13:36:23.225Z,12.76
2018-09-23T13:38:51.269Z,12.64
2018-09-23T13:41:19.266Z,12.97
2018-09-23T13:43:47.268Z,13.20
2018-09-23T13:46:15.300Z,13.32
2018-09-23T13:48:43.304Z,13.49
2018-09-23T13:51:11.305Z,13.37
2018-09-23T13:53:39.343Z,13.49
2018-09-23T13:56:07.341Z,13.57
2018-09-23T13:58:35.359Z,13.47
2018-09-23T14:01:03.417Z,13.57
2018-09-23T14:03:31.425Z,13.51
2018-09-23T14:05:59.418Z,13.49
2018-09-23T14:08:27.425Z,13.46
2018-09-23T14:10:55.445Z,13.55
2018-09-23T14:13:23.497Z,13.72
2018-09-23T14:15:52.081Z,13.65
2018-09-23T14:18:20.101Z,13.85
2018-09-23T14:20:48.137Z,14.03
2018-09-23T14:23:16.157Z,13.96
2018-09-23T14:25:44.133Z,13.91
2018-09-23T14:28:12.191Z,13.96
2018-09-23T14:30:40.209Z,14.04
2018-09-23T14:33:08.217Z,14.21
2018-09-23T14:35:36.416Z,14.25
2018-09-23T14:38:04.353Z,14.29
2018-09-23T14:40:32.376Z,14.34
2018-09-23T14:43:00.418Z,14.21
2018-09-23T14:45:28.502Z,13.75
2018-09-23T14:47:56.501Z,13.64
2018-09-23T14:50:24.541Z,13.83
2018-09-23T14:52:52.564Z,14.00
2018-09-23T14:55:20.581Z,14.13
2018-09-23T14:57:48.618Z,14.07
2018-09-23T15:00:16.650Z,14.11
2018-09-23T15:02:44.690Z,14.05
2018-09-23T15:05:12.750Z,14.02
2018-09-23T15:07:40.899Z,14.05
2018-09-23T15:10:08.937Z,14.10
2018-09-23T15:12:36.984Z,14.05
2018-09-23T15:15:05.197Z,13.91
2018-09-23T15:17:33.346Z,13.69
2018-09-23T15:20:01.349Z,13.21
2018-09-23T15:22:29.465Z,12.91
2018-09-23T15:24:57.468Z,12.46
2018-09-23T15:27:25.495Z,12.24
2018-09-23T15:29:53.553Z,12.08
2018-09-23T15:32:21.646Z,12.07
2018-09-23T15:34:49.657Z,11.72
2018-09-23T15:37:18.221Z,11.74
2018-09-23T15:39:46.285Z,11.68
2018-09-23T15:42:14.364Z,11.53
2018-09-23T15:44:42.364Z,11.63
2018-09-23T15:47:10.404Z,11.62
2018-09-23T15:49:38.417Z,11.78
2018-09-23T15:52:06.604Z,11.67
2018-09-23T15:54:34.596Z,11.75
2018-09-23T15:57:02.599Z,11.61
2018-09-23T15:59:30.625Z,11.71
2018-09-23T16:01:58.643Z,11.61
2018-09-23T16:04:26.834Z,11.67
2018-09-23T16:06:54.783Z,11.73
2018-09-23T16:09:22.800Z,11.68
2018-09-23T16:11:51.096Z,11.59
2018-09-23T16:14:19.125Z,11.56
2018-09-23T16:16:47.148Z,11.43
2018-09-23T16:19:15.178Z,11.46
2018-09-23T16:21:43.133Z,11.42
2018-09-23T16:24:11.227Z,11.39
2018-09-23T16:26:39.213Z,11.35
2018-09-23T16:29:07.432Z,11.35
2018-09-23T16:31:35.437Z,11.39
2018-09-23T16:34:03.439Z,11.19
2018-09-23T16:36:31.432Z,11.28
2018-09-23T16:38:59.559Z,11.41
2018-09-23T16:41:27.548Z,11.52
2018-09-23T16:43:55.564Z,11.47
2018-09-23T16:46:23.602Z,11.47
2018-09-23T16:48:51.608Z,11.53
2018-09-23T16:51:19.637Z,11.61
2018-09-23T16:53:47.887Z,11.61
2018-09-23T16:56:16.030Z,11.68
2018-09-23T16:58:44.030Z,11.65
2018-09-23T17:01:12.073Z,11.63
2018-09-23T17:03:40.072Z,11.62
2018-09-23T17:06:08.104Z,11.64
2018-09-23T17:08:36.184Z,11.47
2018-09-23T17:11:04.221Z,11.46
2018-09-23T17:13:32.225Z,11.52
2018-09-23T17:16:00.224Z,11.28
2018-09-23T17:18:28.256Z,11.16
2018-09-23T17:20:56.265Z,11.02
2018-09-23T17:23:24.285Z,11.19
2018-09-23T17:25:52.310Z,11.03
2018-09-23T17:28:20.341Z,10.97
2018-09-23T17:30:48.345Z,10.76
2018-09-23T17:33:16.376Z,10.89
2018-09-23T17:35:44.446Z,11.15
2018-09-23T17:38:12.604Z,11.33
2018-09-23T17:40:40.645Z,11.39
2018-09-23T17:43:08.717Z,11.57
2018-09-23T17:45:36.772Z,11.67
2018-09-23T17:48:04.968Z,11.73
2018-09-23T17:50:33.194Z,11.69
2018-09-23T17:53:01.263Z,11.77
2018-09-23T17:55:29.367Z,11.67
2018-09-23T17:57:57.584Z,11.51
2018-09-23T18:00:25.572Z,11.45
2018-09-23T18:02:53.600Z,11.45
2018-09-23T18:05:21.608Z,11.33
2018-09-23T18:07:49.634Z,11.32
2018-09-23T18:10:17.853Z,11.33
2018-09-23T18:12:46.122Z,11.33
2018-09-23T18:15:14.212Z,11.31
2018-09-23T18:17:42.221Z,11.35
2018-09-23T18:20:10.258Z,11.24
2018-09-23T18:22:38.434Z,11.32
2018-09-23T18:25:06.435Z,11.42
2018-09-23T18:27:35.543Z,11.33
2018-09-23T18:30:04.524Z,11.20
2018-09-23T18:32:32.653Z,11.25
2018-09-23T18:35:00.687Z,11.24
2018-09-23T18:37:28.807Z,11.27
2018-09-23T18:39:56.701Z,11.25
2018-09-23T18:42:24.748Z,11.09
2018-09-23T18:44:52.777Z,11.00
2018-09-23T18:47:20.785Z,10.99
2018-09-23T18:49:48.810Z,10.99
2018-09-23T18:52:16.945Z,10.99
2018-09-23T18:54:50.317Z,11.01
2018-09-23T18:57:18.341Z,10.96
2018-09-23T18:59:46.380Z,10.90
2018-09-23T19:02:14.421Z,10.81
2018-09-23T19:04:42.589Z,10.42
2018-09-23T19:07:10.643Z,10.18
2018-09-23T19:09:38.629Z,10.10
2018-09-23T19:12:06.640Z,10.05
2018-09-23T19:14:34.749Z,9.88
2018-09-23T19:17:02.805Z,9.95
2018-09-23T19:19:36.400Z,10.16
2018-09-23T19:22:07.463Z,10.12
2018-09-23T19:24:35.496Z,10.20
2018-09-23T19:27:03.520Z,10.27
2018-09-23T19:29:31.509Z,10.05
2018-09-23T19:31:59.536Z,10.12
2018-09-23T19:34:27.549Z,10.19
2018-09-23T19:36:55.604Z,10.20
2018-09-23T19:39:23.633Z,10.39
2018-09-23T19:41:51.677Z,10.43
2018-09-23T19:44:19.672Z,10.47
2018-09-23T19:46:47.724Z,10.36
2018-09-23T19:49:15.802Z,10.44
2018-09-23T19:51:43.745Z,10.51
2018-09-23T19:54:11.809Z,10.54
2018-09-23T19:56:39.988Z,10.36
2018-09-23T19:59:08.004Z,10.38
2018-09-23T20:01:36.065Z,10.42
2018-09-23T20:04:04.191Z,10.48
2018-09-23T20:06:32.217Z,10.47
2018-09-23T20:09:00.240Z,10.43
2018-09-23T20:11:28.288Z,10.35
2018-09-23T20:13:56.339Z,10.19
2018-09-23T20:16:24.364Z,10.26
2018-09-23T20:18:52.445Z,10.28
2018-09-23T20:21:20.454Z,10.35
2018-09-23T20:23:48.444Z,10.34
2018-09-23T20:26:16.553Z,10.24
2018-09-23T20:28:44.626Z,10.15
2018-09-23T20:31:12.667Z,10.22
2018-09-23T20:33:40.701Z,10.10
2018-09-23T20:36:08.723Z,10.22
2018-09-23T20:38:36.904Z,10.16
2018-09-23T20:41:04.892Z,10.10
2018-09-23T20:43:32.926Z,10.10
2018-09-23T20:46:00.961Z,9.99
2018-09-23T20:48:28.988Z,10.16
2018-09-23T20:50:56.980Z,10.21
2018-09-23T20:53:25.029Z,10.31
2018-09-23T20:55:53.047Z,10.35
2018-09-23T20:58:21.109Z,10.45
2018-09-23T21:00:49.164Z,10.40
2018-09-23T21:03:17.171Z,10.37
2018-09-23T21:05:45.335Z,10.23
2018-09-23T21:08:13.408Z,10.14
2018-09-23T21:10:41.410Z,10.17
2018-09-23T21:13:09.837Z,10.34
2018-09-23T21:15:37.885Z,10.47
2018-09-23T21:18:05.956Z,10.44
2018-09-23T21:20:33.973Z,10.49
2018-09-23T21:23:02.016Z,10.60
2018-09-23T21:25:30.163Z,10.61
2018-09-23T21:27:58.257Z,10.52
2018-09-23T21:30:26.277Z,10.16
2018-09-23T21:32:54.345Z,10.23
2018-09-23T21:35:22.396Z,10.25
2018-09-23T21:37:50.725Z,10.20
2018-09-23T21:40:18.753Z,10.31
2018-09-23T21:42:46.745Z,10.06
2018-09-23T21:45:15.837Z,9.99
2018-09-23T21:47:43.850Z,9.99
2018-09-23T21:50:12.165Z,10.00
2018-09-23T21:52:40.216Z,9.87
2018-09-23T21:55:08.435Z,9.85
2018-09-23T21:57:36.478Z,9.72
2018-09-23T22:00:06.650Z,9.76
2018-09-23T22:02:34.653Z,9.88
2018-09-23T22:05:02.857Z,9.81
2018-09-23T22:07:30.951Z,9.91
2018-09-23T22:09:58.986Z,9.90
2018-09-23T22:12:27.049Z,9.76
2018-09-23T22:14:55.073Z,9.74
2018-09-23T22:17:23.112Z,9.82
2018-09-23T22:19:51.340Z,9.66
2018-09-23T22:22:19.357Z,9.65
2018-09-23T22:24:47.416Z,9.69
2018-09-23T22:27:15.456Z,9.63
2018-09-23T22:29:43.476Z,9.85
2018-09-23T22:32:11.516Z,9.91
2018-09-23T22:34:39.537Z,9.79
2018-09-23T22:37:07.552Z,9.79
2018-09-23T22:39:35.594Z,9.72
2018-09-23T22:42:03.655Z,9.94
2018-09-23T22:44:31.628Z,9.95
2018-09-23T22:46:59.668Z,9.99
2018-09-23T22:49:27.809Z,10.17
2018-09-23T22:51:56.889Z,10.12
2018-09-23T22:54:24.912Z,10.08
2018-09-23T22:56:52.926Z,10.11
2018-09-23T22:59:20.934Z,10.11
2018-09-23T23:01:48.968Z,10.07
2018-09-23T23:04:16.984Z,10.22
2018-09-23T23:06:45.025Z,10.05
2018-09-23T23:09:12.997Z,10.04
2018-09-23T23:11:41.001Z,9.87
2018-09-23T23:14:09.289Z,9.81
2018-09-23T23:16:37.297Z,9.92
2018-09-23T23:19:05.349Z,9.90
2018-09-23T23:21:33.408Z,9.75
2018-09-23T23:24:01.421Z,9.74
2018-09-23T23:26:29.444Z,9.81
2018-09-23T23:28:57.515Z,9.81
2018-09-23T23:31:25.532Z,9.81
2018-09-23T23:33:53.506Z,9.63
2018-09-23T23:36:21.493Z,9.60
2018-09-23T23:38:49.525Z,9.65
2018-09-23T23:41:17.559Z,9.46
2018-09-23T23:43:45.588Z,9.27
2018-09-23T23:46:13.576Z,9.30
2018-09-23T23:48:41.601Z,9.36
2018-09-23T23:51:09.573Z,9.38
2018-09-23T23:53:37.637Z,9.45
2018-09-23T23:56:05.713Z,9.56
2018-09-23T23:58:33.697Z,9.68
